PWSweather.com
Personal Weather Stations
Station Observations
IPEONIA2
GrivaGR

GrivaGR

Lat: 40.954, Lon: 22.409

Elevation: 1512

Station Type: Ambient Weather:WH2600 Observer-IP

Latest ConditionsUpdated 2:40:00 AM GMT+02:02 Monday, Jan 20, 2020
Currently Today's Max Today's Min Today's Average
Temperature 36.0°F2.2°C 36.7°F2.6°C 36.0°F2.2°C 36.3°F2.4°C
Dew Point 32.7°F0.4°C 34.7°F1.5°C 32.5°F0.3°C 33.5°F0.8°C
Winds Calm Calm Calm -Calm - - Calm Calm
Wind Gusts -- 7.6 mph12.2 kmh - -
Humidity 88% 94% 87% 90%
Pressure 30.51 in1033.2 mb 30.51 in1033.2 mb 30.46 in1031.5 mb -
Hour Temp Dew Point Humidity Winds Wind Gusts Pressure Precip Precip Rate Daily Precip Total
02:40 AM 36.0°F2.2°C 32.7°F0.4°C 88% Calm Calm -- 30.51 in1033.2 mb 0.00 in0.0 mm 0.00 in0.0 mm 0.00 in0.0 mm
02:34 AM 36.0°F2.2°C 32.5°F0.3°C 87% Calm Calm -- 30.51 in1033.2 mb 0.00 in0.0 mm 0.00 in0.0 mm 0.00 in0.0 mm
02:29 AM 36.1°F2.3°C 32.7°F0.4°C 87% Calm Calm 2.5 mph4.0 kmh 30.51 in1033.2 mb 0.00 in0.0 mm 0.00 in0.0 mm 0.00 in0.0 mm
02:24 AM 36.1°F2.3°C 32.9°F0.5°C 88% Calm Calm 7.6 mph12.2 kmh 30.51 in1033.2 mb 0.00 in0.0 mm 0.00 in0.0 mm 0.00 in0.0 mm
02:19 AM 36.1°F2.3°C 32.9°F0.5°C 88% Calm Calm 2.5 mph4.0 kmh 30.51 in1033.2 mb 0.00 in0.0 mm 0.00 in0.0 mm 0.00 in0.0 mm
02:14 AM 36.1°F2.3°C 32.9°F0.5°C 88% Calm Calm -- 30.50 in1032.8 mb 0.00 in0.0 mm 0.00 in0.0 mm 0.00 in0.0 mm
02:09 AM 36.1°F2.3°C 32.9°F0.5°C 88% Calm Calm -- 30.50 in1032.8 mb 0.00 in0.0 mm 0.00 in0.0 mm 0.00 in0.0 mm
02:04 AM 36.3°F2.4°C 33.1°F0.6°C 88% Calm Calm -- 30.50 in1032.8 mb 0.00 in0.0 mm 0.00 in0.0 mm 0.00 in0.0 mm
01:59 AM 36.3°F2.4°C 33.4°F0.8°C 89% Calm Calm -- 30.50 in1032.8 mb 0.00 in0.0 mm 0.00 in0.0 mm 0.00 in0.0 mm
01:54 AM 36.3°F2.4°C 33.1°F0.6°C 88% Calm Calm 2.5 mph4.0 kmh 30.49 in1032.5 mb 0.00 in0.0 mm 0.00 in0.0 mm 0.00 in0.0 mm
01:49 AM 36.3°F2.4°C 33.1°F0.6°C 88% Calm Calm -- 30.49 in1032.5 mb 0.00 in0.0 mm 0.00 in0.0 mm 0.00 in0.0 mm
01:43 AM 36.5°F2.5°C 33.3°F0.7°C 88% Calm Calm -- 30.48 in1032.2 mb 0.00 in0.0 mm 0.00 in0.0 mm 0.00 in0.0 mm
01:38 AM 36.5°F2.5°C 33.3°F0.7°C 88% Calm Calm -- 30.48 in1032.2 mb 0.00 in0.0 mm 0.00 in0.0 mm 0.00 in0.0 mm
01:33 AM 36.5°F2.5°C 33.3°F0.7°C 88% Calm Calm -- 30.48 in1032.2 mb 0.00 in0.0 mm 0.00 in0.0 mm 0.00 in0.0 mm
01:28 AM 36.5°F2.5°C 33.3°F0.7°C 88% Calm Calm 2.5 mph4.0 kmh 30.48 in1032.2 mb 0.00 in0.0 mm 0.00 in0.0 mm 0.00 in0.0 mm
01:23 AM 36.1°F2.3°C 33.4°F0.8°C 90% Calm Calm -- 30.48 in1032.2 mb 0.00 in0.0 mm 0.00 in0.0 mm 0.00 in0.0 mm
01:18 AM 36.1°F2.3°C 33.8°F1.0°C 91% Calm Calm -- 30.48 in1032.2 mb 0.00 in0.0 mm 0.00 in0.0 mm 0.00 in0.0 mm
01:13 AM 36.1°F2.3°C 34.3°F1.3°C 93% Calm Calm -- 30.47 in1031.8 mb 0.00 in0.0 mm 0.00 in0.0 mm 0.00 in0.0 mm
01:08 AM 36.3°F2.4°C 34.0°F1.1°C 91% Calm Calm -- 30.47 in1031.8 mb 0.00 in0.0 mm 0.00 in0.0 mm 0.00 in0.0 mm
12:58 AM 36.3°F2.4°C 34.0°F1.1°C 91% Calm Calm -- 30.47 in1031.8 mb 0.00 in0.0 mm 0.00 in0.0 mm 0.00 in0.0 mm
12:53 AM 36.3°F2.4°C 33.6°F0.9°C 90% Calm Calm -- 30.47 in1031.8 mb 0.00 in0.0 mm 0.00 in0.0 mm 0.00 in0.0 mm
12:47 AM 36.3°F2.4°C 33.6°F0.9°C 90% Calm Calm -- 30.47 in1031.8 mb 0.00 in0.0 mm 0.00 in0.0 mm 0.00 in0.0 mm
12:42 AM 36.3°F2.4°C 34.2°F1.2°C 92% Calm Calm -- 30.47 in1031.8 mb 0.00 in0.0 mm 0.00 in0.0 mm 0.00 in0.0 mm
12:37 AM 36.3°F2.4°C 34.2°F1.2°C 92% Calm Calm -- 30.47 in1031.8 mb 0.00 in0.0 mm 0.00 in0.0 mm 0.00 in0.0 mm
12:32 AM 36.3°F2.4°C 34.7°F1.5°C 94% Calm Calm -- 30.47 in1031.8 mb 0.00 in0.0 mm 0.00 in0.0 mm 0.00 in0.0 mm
12:27 AM 36.5°F2.5°C 34.2°F1.2°C 91% Calm Calm -- 30.47 in1031.8 mb 0.00 in0.0 mm 0.00 in0.0 mm 0.00 in0.0 mm
12:22 AM 36.3°F2.4°C 33.6°F0.9°C 90% Calm Calm -- 30.47 in1031.8 mb 0.00 in0.0 mm 0.00 in0.0 mm 0.00 in0.0 mm
12:17 AM 36.3°F2.4°C 34.0°F1.1°C 91% Calm Calm -- 30.46 in1031.5 mb 0.00 in0.0 mm 0.00 in0.0 mm 0.00 in0.0 mm
12:12 AM 36.3°F2.4°C 33.6°F0.9°C 90% Calm Calm -- 30.46 in1031.5 mb 0.00 in0.0 mm 0.00 in0.0 mm 0.00 in0.0 mm
12:07 AM 36.3°F2.4°C 34.2°F1.2°C 92% Calm Calm -- 30.46 in1031.5 mb 0.00 in0.0 mm 0.00 in0.0 mm 0.00 in0.0 mm
12:02 AM 36.7°F2.6°C 34.5°F1.4°C 92% Calm Calm -- 30.46 in1031.5 mb 0.00 in0.0 mm 0.00 in0.0 mm 0.00 in0.0 mm